createdAt,value
2022-09-03T00:00:15.060Z,17.12
2022-09-03T00:03:16.477Z,16.44
2022-09-03T00:06:17.700Z,15.95
2022-09-03T00:09:36.101Z,16.00
2022-09-03T00:12:34.701Z,17.28
2022-09-03T00:15:24.716Z,18.11
2022-09-03T00:18:22.224Z,18.63
2022-09-03T00:21:22.542Z,18.60
2022-09-03T00:24:15.623Z,17.61
2022-09-03T00:27:11.673Z,16.87
2022-09-03T00:30:21.467Z,16.36
2022-09-03T00:33:27.375Z,15.94
2022-09-03T00:36:45.218Z,16.10
2022-09-03T00:39:33.766Z,17.41
2022-09-03T00:43:16.323Z,18.16
2022-09-03T00:46:51.283Z,17.95
2022-09-03T00:49:48.545Z,16.89
2022-09-03T00:53:00.944Z,16.19
2022-09-03T00:56:25.138Z,15.62
2022-09-03T00:59:35.908Z,15.84
2022-09-03T01:02:58.565Z,16.99
2022-09-03T01:06:13.449Z,17.33
2022-09-03T01:09:09.670Z,16.34
2022-09-03T01:12:03.480Z,15.57
2022-09-03T01:15:06.856Z,16.05
2022-09-03T01:18:21.888Z,16.92
2022-09-03T01:21:28.229Z,17.44
2022-09-03T01:24:35.965Z,17.32
2022-09-03T01:27:50.793Z,16.16
2022-09-03T01:30:49.335Z,15.65
2022-09-03T01:34:25.843Z,16.45
2022-09-03T01:37:39.110Z,16.97
2022-09-03T01:41:36.790Z,16.72
2022-09-03T01:45:14.293Z,15.29
2022-09-03T01:48:12.117Z,15.80
2022-09-03T01:51:19.809Z,16.59
2022-09-03T01:54:38.654Z,16.89
2022-09-03T01:58:06.763Z,15.87
2022-09-03T02:01:07.710Z,15.32
2022-09-03T02:04:00.124Z,16.08
2022-09-03T02:06:49.058Z,16.59
2022-09-03T02:09:36.730Z,16.96
2022-09-03T02:12:25.466Z,17.20
2022-09-03T02:15:19.526Z,17.16
2022-09-03T02:18:17.293Z,16.12
2022-09-03T02:21:05.616Z,15.09
2022-09-03T02:23:54.109Z,14.83
2022-09-03T02:26:41.917Z,15.64
2022-09-03T02:29:31.038Z,16.36
2022-09-03T02:32:19.193Z,16.79
2022-09-03T02:35:08.140Z,17.08
2022-09-03T02:37:56.360Z,17.23
2022-09-03T02:40:45.860Z,17.28
2022-09-03T02:43:45.783Z,17.41
2022-09-03T02:47:03.055Z,17.09
2022-09-03T02:49:52.745Z,15.69
2022-09-03T02:52:40.967Z,15.28
2022-09-03T02:55:30.665Z,15.98
2022-09-03T02:58:18.665Z,16.51
2022-09-03T03:01:06.745Z,16.81
2022-09-03T03:03:54.640Z,17.00
2022-09-03T03:06:42.719Z,17.19
2022-09-03T03:09:35.783Z,16.88
2022-09-03T03:12:23.613Z,15.74
2022-09-03T03:15:11.649Z,14.83
2022-09-03T03:17:59.659Z,14.52
2022-09-03T03:20:50.355Z,15.42
2022-09-03T03:23:39.752Z,16.18
2022-09-03T03:26:27.269Z,16.62
2022-09-03T03:29:20.871Z,16.94
2022-09-03T03:32:09.101Z,16.60
2022-09-03T03:34:57.097Z,15.49
2022-09-03T03:37:45.448Z,15.00
2022-09-03T03:40:35.016Z,15.74
2022-09-03T03:43:23.055Z,16.37
2022-09-03T03:46:12.178Z,16.39
2022-09-03T03:49:01.359Z,15.38
2022-09-03T03:51:49.361Z,14.48
2022-09-03T03:54:37.683Z,14.63
2022-09-03T03:57:26.046Z,15.53
2022-09-03T04:00:15.581Z,16.20
2022-09-03T04:03:04.775Z,16.33
2022-09-03T04:05:59.346Z,15.28
2022-09-03T04:08:49.764Z,14.30
2022-09-03T04:11:37.454Z,14.01
2022-09-03T04:14:27.356Z,14.93
2022-09-03T04:17:15.799Z,15.70
2022-09-03T04:20:04.813Z,16.19
2022-09-03T04:22:52.694Z,16.55
2022-09-03T04:25:42.097Z,16.48
2022-09-03T04:28:30.065Z,15.43
2022-09-03T04:31:21.347Z,14.56
2022-09-03T04:34:09.640Z,13.94
2022-09-03T04:37:00.718Z,13.86
2022-09-03T04:39:48.805Z,14.97
2022-09-03T04:42:36.741Z,15.87
2022-09-03T04:45:24.850Z,16.41
2022-09-03T04:48:13.868Z,16.53
2022-09-03T04:51:07.535Z,15.59
2022-09-03T04:54:00.359Z,14.72
2022-09-03T04:56:48.888Z,14.10
2022-09-03T04:59:37.243Z,14.01
2022-09-03T05:02:25.617Z,15.07
2022-09-03T05:05:13.971Z,16.01
2022-09-03T05:08:02.267Z,16.60
2022-09-03T05:10:50.115Z,16.27
2022-09-03T05:13:43.380Z,15.29
2022-09-03T05:16:31.636Z,14.60
2022-09-03T05:19:19.864Z,14.10
2022-09-03T05:22:08.315Z,14.06
2022-09-03T05:24:58.261Z,15.15
2022-09-03T05:27:47.206Z,16.05
2022-09-03T05:30:36.667Z,16.64
2022-09-03T05:33:25.138Z,16.29
2022-09-03T05:36:17.182Z,15.36
2022-09-03T05:39:09.563Z,14.69
2022-09-03T05:41:57.491Z,14.22
2022-09-03T05:44:45.705Z,13.92
2022-09-03T05:47:33.620Z,14.53
2022-09-03T05:50:21.587Z,15.74
2022-09-03T05:53:09.753Z,16.62
2022-09-03T05:56:00.353Z,16.87
2022-09-03T05:58:52.722Z,16.14
2022-09-03T06:01:50.702Z,15.52
2022-09-03T06:04:40.295Z,15.33
2022-09-03T06:07:28.388Z,15.36
2022-09-03T06:10:20.225Z,15.99
2022-09-03T06:13:10.876Z,17.46
2022-09-03T06:16:08.703Z,17.46
2022-09-03T06:18:57.003Z,17.22
2022-09-03T06:21:48.521Z,17.09
2022-09-03T06:24:37.000Z,16.92
2022-09-03T06:27:26.213Z,16.79
2022-09-03T06:30:17.214Z,16.69
2022-09-03T06:33:04.877Z,16.54
2022-09-03T06:35:58.190Z,16.33
2022-09-03T06:38:47.630Z,16.16
2022-09-03T06:41:36.155Z,16.00
2022-09-03T06:44:24.327Z,15.84
2022-09-03T06:47:12.244Z,15.66
2022-09-03T06:50:02.329Z,15.49
2022-09-03T06:52:57.059Z,15.39
2022-09-03T06:55:53.867Z,15.78
2022-09-03T06:58:45.592Z,17.29
2022-09-03T07:01:34.987Z,18.09
2022-09-03T07:04:25.175Z,17.58
2022-09-03T07:07:14.203Z,17.04
2022-09-03T07:10:02.567Z,16.71
2022-09-03T07:12:50.524Z,16.50
2022-09-03T07:15:38.483Z,16.36
2022-09-03T07:18:26.254Z,16.23
2022-09-03T07:21:27.221Z,16.04
2022-09-03T07:24:15.476Z,15.91
2022-09-03T07:27:09.836Z,15.77
2022-09-03T07:30:00.686Z,15.62
2022-09-03T07:32:51.154Z,15.53
2022-09-03T07:35:39.150Z,15.77
2022-09-03T07:38:27.034Z,17.03
2022-09-03T07:41:26.807Z,17.87
2022-09-03T07:44:19.981Z,17.33
2022-09-03T07:47:10.252Z,16.81
2022-09-03T07:49:58.209Z,16.64
2022-09-03T07:52:46.128Z,16.67
2022-09-03T07:55:34.134Z,16.80
2022-09-03T07:58:24.267Z,16.96
2022-09-03T08:01:18.197Z,17.17
2022-09-03T08:04:09.710Z,17.49
2022-09-03T08:06:59.509Z,17.81
2022-09-03T08:09:51.151Z,18.09
2022-09-03T08:12:39.420Z,18.29
2022-09-03T08:15:27.875Z,18.37
2022-09-03T08:18:15.966Z,18.41
2022-09-03T08:21:16.314Z,18.42
2022-09-03T08:24:04.864Z,18.35
2022-09-03T08:26:52.814Z,18.27
2022-09-03T08:29:40.696Z,18.20
2022-09-03T08:32:31.044Z,18.25
2022-09-03T08:35:22.133Z,18.33
2022-09-03T08:38:11.013Z,18.38
2022-09-03T08:41:17.535Z,18.44
2022-09-03T08:44:33.444Z,18.53
2022-09-03T08:47:46.644Z,18.84
2022-09-03T08:50:56.208Z,19.50
2022-09-03T08:53:56.252Z,20.68
2022-09-03T08:56:44.836Z,21.41
2022-09-03T08:59:33.951Z,21.76
2022-09-03T09:03:01.512Z,22.16
2022-09-03T09:06:17.193Z,22.76
2022-09-03T09:09:39.415Z,23.29
2022-09-03T09:12:44.201Z,23.78
2022-09-03T09:16:40.557Z,24.42
2022-09-03T09:20:16.794Z,25.15
2022-09-03T09:23:09.228Z,25.14
2022-09-03T09:26:01.847Z,25.57
2022-09-03T09:29:09.452Z,26.05
2022-09-03T09:31:58.234Z,27.22
2022-09-03T09:34:51.837Z,28.07
2022-09-03T09:37:51.209Z,28.29
2022-09-03T09:40:45.642Z,29.15
2022-09-03T09:43:34.068Z,30.36
2022-09-03T09:46:31.253Z,31.37
2022-09-03T09:49:36.045Z,31.78
2022-09-03T09:52:30.436Z,31.59
2022-09-03T09:55:20.607Z,30.42
2022-09-03T09:58:14.701Z,29.02
2022-09-03T10:01:13.565Z,28.30
2022-09-03T10:04:24.558Z,29.04
2022-09-03T10:07:33.283Z,29.78
2022-09-03T10:10:22.277Z,29.60
2022-09-03T10:13:31.163Z,29.76
2022-09-03T10:16:36.296Z,30.62
2022-09-03T10:19:40.854Z,30.91
2022-09-03T10:22:35.234Z,31.26
2022-09-03T10:25:29.893Z,31.45
2022-09-03T10:28:18.599Z,31.48
2022-09-03T10:31:37.032Z,31.59
2022-09-03T10:34:59.047Z,30.42
2022-09-03T10:38:00.873Z,29.53
2022-09-03T10:41:09.803Z,29.41
2022-09-03T10:44:19.762Z,29.02
2022-09-03T10:47:19.826Z,28.43
2022-09-03T10:50:59.929Z,28.73
2022-09-03T10:54:36.094Z,29.07
2022-09-03T10:58:11.476Z,29.11
2022-09-03T11:01:22.411Z,28.83
2022-09-03T11:05:01.216Z,28.95
2022-09-03T11:08:03.659Z,28.29
2022-09-03T11:11:00.895Z,27.20
2022-09-03T11:14:00.322Z,26.78
2022-09-03T11:17:03.176Z,27.27
2022-09-03T11:19:58.979Z,28.04
2022-09-03T11:22:49.778Z,28.47
2022-09-03T11:25:54.830Z,28.11
2022-09-03T11:28:57.249Z,27.88
2022-09-03T11:31:58.062Z,27.78
2022-09-03T11:34:52.736Z,27.92
2022-09-03T11:38:00.012Z,28.33
2022-09-03T11:41:27.373Z,28.59
2022-09-03T11:45:16.783Z,28.83
2022-09-03T11:48:48.309Z,28.96
2022-09-03T11:51:42.145Z,28.96
2022-09-03T11:54:33.656Z,28.92
2022-09-03T11:57:30.795Z,28.71
2022-09-03T12:00:21.765Z,28.55
2022-09-03T12:03:16.471Z,27.84
2022-09-03T12:06:49.663Z,27.07
2022-09-03T12:10:19.431Z,26.44
2022-09-03T12:13:40.622Z,25.69
2022-09-03T12:16:56.699Z,25.04
2022-09-03T12:19:56.377Z,24.29
2022-09-03T12:22:44.191Z,23.57
2022-09-03T12:25:32.535Z,23.03
2022-09-03T12:28:26.393Z,22.54
2022-09-03T12:31:24.755Z,22.10
2022-09-03T12:34:20.196Z,21.73
2022-09-03T12:40:32.922Z,20.93
2022-09-03T12:46:34.440Z,20.33
2022-09-03T12:49:30.427Z,20.15
2022-09-03T12:52:33.171Z,19.90
2022-09-03T12:55:54.112Z,19.69
2022-09-03T12:59:02.356Z,19.48
2022-09-03T13:01:58.762Z,19.36
2022-09-03T13:04:47.512Z,19.16
2022-09-03T13:07:39.057Z,18.97
2022-09-03T13:10:39.062Z,18.84
2022-09-03T13:13:36.781Z,18.71
2022-09-03T13:16:46.792Z,18.64
2022-09-03T13:19:51.034Z,18.61
2022-09-03T19:45:26.634Z,13.13
2022-09-03T19:49:18.224Z,12.89
2022-09-03T19:52:40.148Z,12.11
2022-09-03T19:55:55.028Z,11.64
2022-09-03T19:59:29.717Z,11.31
2022-09-03T20:02:36.326Z,11.85
2022-09-03T20:05:43.863Z,13.63
2022-09-03T20:08:52.835Z,14.43
2022-09-03T20:11:41.915Z,14.53
2022-09-03T20:14:33.219Z,13.55
2022-09-03T20:18:19.684Z,12.75
2022-09-03T20:21:23.740Z,12.04
2022-09-03T20:24:34.234Z,11.63
2022-09-03T20:27:58.751Z,11.72
2022-09-03T20:31:25.089Z,13.14
2022-09-03T20:34:35.330Z,14.12
2022-09-03T20:37:30.157Z,14.69
2022-09-03T20:40:40.158Z,14.66
2022-09-03T20:43:59.054Z,13.51
2022-09-03T20:47:05.800Z,12.57
2022-09-03T20:50:22.246Z,11.99
2022-09-03T20:53:23.726Z,11.50
2022-09-03T20:56:35.739Z,11.52
2022-09-03T20:59:36.104Z,12.85
2022-09-03T21:03:20.121Z,13.80
2022-09-03T21:06:39.120Z,14.50
2022-09-03T21:10:05.322Z,14.41
2022-09-03T21:13:47.731Z,13.21
2022-09-03T21:17:00.544Z,12.30
2022-09-03T21:20:16.547Z,11.78
2022-09-03T21:23:21.929Z,11.35
2022-09-03T21:26:27.648Z,11.49
2022-09-03T21:29:32.999Z,12.84
2022-09-03T21:32:29.434Z,13.83
2022-09-03T21:35:43.090Z,14.42
2022-09-03T21:38:38.591Z,14.90
2022-09-03T21:41:49.700Z,14.81
2022-09-03T21:45:07.814Z,13.64
2022-09-03T21:48:18.550Z,12.73
2022-09-03T21:51:22.103Z,12.15
2022-09-03T21:54:19.164Z,11.73
2022-09-03T21:57:40.764Z,11.80
2022-09-03T22:00:32.792Z,13.18
2022-09-03T22:03:21.824Z,14.07
2022-09-03T22:06:25.769Z,14.66
2022-09-03T22:09:33.722Z,15.12
2022-09-03T22:12:40.187Z,15.01
2022-09-03T22:15:29.965Z,13.88
2022-09-03T22:18:28.812Z,13.10
2022-09-03T22:21:37.218Z,12.52
2022-09-03T22:24:48.218Z,12.05
2022-09-03T22:27:50.044Z,12.13
2022-09-03T22:31:13.032Z,13.43
2022-09-03T22:34:46.399Z,14.43
2022-09-03T22:38:01.909Z,15.13
2022-09-03T22:41:16.267Z,15.08
2022-09-03T22:44:22.879Z,13.97
2022-09-03T22:48:02.844Z,13.20
2022-09-03T22:51:00.637Z,12.61
2022-09-03T22:54:05.283Z,12.26
2022-09-03T22:56:56.319Z,11.97
2022-09-03T23:00:09.722Z,12.31
2022-09-03T23:03:07.971Z,14.65
2022-09-03T23:06:13.436Z,15.37
2022-09-03T23:09:36.994Z,15.31
2022-09-03T23:12:46.435Z,14.13
2022-09-03T23:15:38.700Z,13.36
2022-09-03T23:18:32.553Z,12.89
2022-09-03T23:21:41.181Z,12.55
2022-09-03T23:24:50.273Z,12.24
2022-09-03T23:27:53.682Z,11.98
2022-09-03T23:30:41.905Z,12.14
2022-09-03T23:33:29.568Z,13.44
2022-09-03T23:36:50.997Z,14.49
2022-09-03T23:40:16.380Z,15.28
2022-09-03T23:43:14.380Z,15.19
2022-09-03T23:46:19.065Z,14.17
2022-09-03T23:49:27.400Z,13.44
2022-09-03T23:52:20.980Z,12.93
2022-09-03T23:55:41.608Z,12.59
2022-09-03T23:58:44.351Z,12.28
